sensor_id;sensor_type;location;lat;lon;timestamp;P1;durP1;ratioP1;P2;durP2;ratioP2
13386;SDS011;6763;48.524;9.044;2023-03-24T00:02:24;1.63;;;1.50;;
13386;SDS011;6763;48.524;9.044;2023-03-24T00:04:52;1.92;;;1.55;;
13386;SDS011;6763;48.524;9.044;2023-03-24T00:07:22;2.45;;;1.50;;
13386;SDS011;6763;48.524;9.044;2023-03-24T00:09:49;1.75;;;1.60;;
13386;SDS011;6763;48.524;9.044;2023-03-24T00:12:14;2.35;;;1.70;;
13386;SDS011;6763;48.524;9.044;2023-03-24T00:14:43;2.15;;;1.50;;
13386;SDS011;6763;48.524;9.044;2023-03-24T00:17:10;1.42;;;1.30;;
13386;SDS011;6763;48.524;9.044;2023-03-24T00:19:37;2.20;;;1.58;;
13386;SDS011;6763;48.524;9.044;2023-03-24T00:22:04;2.08;;;1.52;;
13386;SDS011;6763;48.524;9.044;2023-03-24T00:24:32;3.25;;;1.23;;
13386;SDS011;6763;48.524;9.044;2023-03-24T00:26:58;1.77;;;1.58;;
13386;SDS011;6763;48.524;9.044;2023-03-24T00:29:25;1.70;;;1.45;;
13386;SDS011;6763;48.524;9.044;2023-03-24T00:31:51;2.20;;;1.50;;
13386;SDS011;6763;48.524;9.044;2023-03-24T00:34:17;1.98;;;1.50;;
13386;SDS011;6763;48.524;9.044;2023-03-24T00:36:47;1.80;;;1.23;;
13386;SDS011;6763;48.524;9.044;2023-03-24T00:39:13;1.75;;;1.42;;
13386;SDS011;6763;48.524;9.044;2023-03-24T00:41:41;2.50;;;1.80;;
13386;SDS011;6763;48.524;9.044;2023-03-24T00:44:09;2.88;;;1.55;;
13386;SDS011;6763;48.524;9.044;2023-03-24T00:46:42;3.15;;;2.10;;
13386;SDS011;6763;48.524;9.044;2023-03-24T00:49:09;1.88;;;1.50;;
13386;SDS011;6763;48.524;9.044;2023-03-24T00:51:38;2.13;;;1.73;;
13386;SDS011;6763;48.524;9.044;2023-03-24T00:54:05;1.85;;;1.52;;
13386;SDS011;6763;48.524;9.044;2023-03-24T00:56:33;2.28;;;1.80;;
13386;SDS011;6763;48.524;9.044;2023-03-24T00:59:02;2.28;;;1.75;;
13386;SDS011;6763;48.524;9.044;2023-03-24T01:01:28;5.80;;;2.13;;
13386;SDS011;6763;48.524;9.044;2023-03-24T01:04:00;4.13;;;1.80;;
13386;SDS011;6763;48.524;9.044;2023-03-24T01:06:26;1.77;;;1.48;;
13386;SDS011;6763;48.524;9.044;2023-03-24T01:08:52;1.85;;;1.45;;
13386;SDS011;6763;48.524;9.044;2023-03-24T01:11:22;1.55;;;1.42;;
13386;SDS011;6763;48.524;9.044;2023-03-24T01:13:50;1.35;;;1.25;;
13386;SDS011;6763;48.524;9.044;2023-03-24T01:16:17;1.92;;;1.20;;
13386;SDS011;6763;48.524;9.044;2023-03-24T01:18:43;1.60;;;1.45;;
13386;SDS011;6763;48.524;9.044;2023-03-24T01:21:09;2.42;;;1.50;;
13386;SDS011;6763;48.524;9.044;2023-03-24T01:23:36;2.10;;;1.25;;
13386;SDS011;6763;48.524;9.044;2023-03-24T01:26:03;1.33;;;1.10;;
13386;SDS011;6763;48.524;9.044;2023-03-24T01:28:31;1.75;;;1.50;;
13386;SDS011;6763;48.524;9.044;2023-03-24T01:30:57;2.35;;;1.65;;
13386;SDS011;6763;48.524;9.044;2023-03-24T01:33:22;1.90;;;1.35;;
13386;SDS011;6763;48.524;9.044;2023-03-24T01:35:48;1.48;;;1.17;;
13386;SDS011;6763;48.524;9.044;2023-03-24T01:38:14;2.05;;;1.60;;
13386;SDS011;6763;48.524;9.044;2023-03-24T01:40:40;1.70;;;1.52;;
13386;SDS011;6763;48.524;9.044;2023-03-24T01:43:19;1.27;;;1.17;;
13386;SDS011;6763;48.524;9.044;2023-03-24T01:48:52;3.53;;;1.67;;
13386;SDS011;6763;48.524;9.044;2023-03-24T01:51:24;1.77;;;1.20;;
13386;SDS011;6763;48.524;9.044;2023-03-24T01:53:57;2.33;;;1.13;;
13386;SDS011;6763;48.524;9.044;2023-03-24T01:56:23;1.95;;;1.52;;
13386;SDS011;6763;48.524;9.044;2023-03-24T01:58:53;4.53;;;1.75;;
13386;SDS011;6763;48.524;9.044;2023-03-24T02:01:22;2.42;;;1.95;;
13386;SDS011;6763;48.524;9.044;2023-03-24T02:03:50;1.80;;;1.60;;
13386;SDS011;6763;48.524;9.044;2023-03-24T02:06:16;1.98;;;1.50;;
13386;SDS011;6763;48.524;9.044;2023-03-24T02:08:53;1.75;;;1.55;;
13386;SDS011;6763;48.524;9.044;2023-03-24T02:11:20;1.38;;;1.27;;
13386;SDS011;6763;48.524;9.044;2023-03-24T02:13:47;1.52;;;1.42;;
13386;SDS011;6763;48.524;9.044;2023-03-24T02:16:14;1.65;;;1.52;;
13386;SDS011;6763;48.524;9.044;2023-03-24T02:19:28;2.50;;;1.35;;
13386;SDS011;6763;48.524;9.044;2023-03-24T02:28:50;1.23;;;1.08;;
13386;SDS011;6763;48.524;9.044;2023-03-24T02:31:48;2.05;;;1.30;;
13386;SDS011;6763;48.524;9.044;2023-03-24T02:34:35;1.30;;;1.10;;
13386;SDS011;6763;48.524;9.044;2023-03-24T02:43:10;2.40;;;1.67;;
13386;SDS011;6763;48.524;9.044;2023-03-24T02:49:06;1.27;;;1.13;;
13386;SDS011;6763;48.524;9.044;2023-03-24T02:54:19;1.52;;;1.38;;
13386;SDS011;6763;48.524;9.044;2023-03-24T02:56:54;1.90;;;1.30;;
13386;SDS011;6763;48.524;9.044;2023-03-24T02:59:41;1.95;;;1.23;;
13386;SDS011;6763;48.524;9.044;2023-03-24T03:02:14;1.55;;;1.00;;
13386;SDS011;6763;48.524;9.044;2023-03-24T03:04:49;1.40;;;1.30;;
13386;SDS011;6763;48.524;9.044;2023-03-24T03:07:29;3.17;;;1.20;;
13386;SDS011;6763;48.524;9.044;2023-03-24T03:10:07;2.22;;;1.20;;
13386;SDS011;6763;48.524;9.044;2023-03-24T03:12:39;1.88;;;1.60;;
13386;SDS011;6763;48.524;9.044;2023-03-24T03:15:13;1.30;;;1.20;;
13386;SDS011;6763;48.524;9.044;2023-03-24T03:17:45;1.73;;;1.20;;
13386;SDS011;6763;48.524;9.044;2023-03-24T03:20:17;5.20;;;1.55;;
13386;SDS011;6763;48.524;9.044;2023-03-24T03:22:50;2.20;;;1.90;;
13386;SDS011;6763;48.524;9.044;2023-03-24T03:25:22;3.05;;;1.83;;
13386;SDS011;6763;48.524;9.044;2023-03-24T03:27:55;2.75;;;1.65;;
13386;SDS011;6763;48.524;9.044;2023-03-24T03:30:28;1.60;;;1.48;;
13386;SDS011;6763;48.524;9.044;2023-03-24T03:33:08;1.67;;;1.10;;
13386;SDS011;6763;48.524;9.044;2023-03-24T03:35:38;1.27;;;1.17;;
13386;SDS011;6763;48.524;9.044;2023-03-24T03:38:29;0.93;;;0.80;;
13386;SDS011;6763;48.524;9.044;2023-03-24T03:41:13;2.00;;;1.25;;
13386;SDS011;6763;48.524;9.044;2023-03-24T03:43:43;1.40;;;1.30;;
13386;SDS011;6763;48.524;9.044;2023-03-24T03:46:11;2.53;;;1.63;;
13386;SDS011;6763;48.524;9.044;2023-03-24T03:48:37;2.20;;;1.30;;
13386;SDS011;6763;48.524;9.044;2023-03-24T03:51:06;2.13;;;1.52;;
13386;SDS011;6763;48.524;9.044;2023-03-24T03:53:40;1.38;;;1.23;;
13386;SDS011;6763;48.524;9.044;2023-03-24T03:56:11;2.42;;;1.35;;
13386;SDS011;6763;48.524;9.044;2023-03-24T03:58:37;2.15;;;1.30;;
13386;SDS011;6763;48.524;9.044;2023-03-24T04:01:03;2.50;;;1.27;;
13386;SDS011;6763;48.524;9.044;2023-03-24T04:14:57;3.30;;;1.40;;
13386;SDS011;6763;48.524;9.044;2023-03-24T04:20:21;1.10;;;1.05;;
13386;SDS011;6763;48.524;9.044;2023-03-24T04:22:59;1.30;;;1.10;;
13386;SDS011;6763;48.524;9.044;2023-03-24T04:25:28;0.90;;;0.90;;
13386;SDS011;6763;48.524;9.044;2023-03-24T04:28:23;1.23;;;1.13;;
13386;SDS011;6763;48.524;9.044;2023-03-24T04:31:02;1.27;;;0.90;;
13386;SDS011;6763;48.524;9.044;2023-03-24T04:33:40;1.63;;;1.15;;
13386;SDS011;6763;48.524;9.044;2023-03-24T04:36:13;1.55;;;0.95;;
13386;SDS011;6763;48.524;9.044;2023-03-24T04:38:51;1.35;;;1.10;;
13386;SDS011;6763;48.524;9.044;2023-03-24T04:41:20;2.20;;;1.45;;
13386;SDS011;6763;48.524;9.044;2023-03-24T04:43:49;0.93;;;0.80;;
13386;SDS011;6763;48.524;9.044;2023-03-24T04:46:16;2.72;;;0.90;;
13386;SDS011;6763;48.524;9.044;2023-03-24T04:48:43;1.00;;;0.90;;
13386;SDS011;6763;48.524;9.044;2023-03-24T04:51:12;2.42;;;1.27;;
13386;SDS011;6763;48.524;9.044;2023-03-24T04:53:39;1.42;;;0.82;;
13386;SDS011;6763;48.524;9.044;2023-03-24T04:58:52;1.05;;;0.95;;
13386;SDS011;6763;48.524;9.044;2023-03-24T05:01:17;1.20;;;1.00;;
13386;SDS011;6763;48.524;9.044;2023-03-24T05:03:45;1.33;;;1.00;;
13386;SDS011;6763;48.524;9.044;2023-03-24T05:06:11;0.82;;;0.82;;
13386;SDS011;6763;48.524;9.044;2023-03-24T05:08:37;1.15;;;1.05;;
13386;SDS011;6763;48.524;9.044;2023-03-24T05:11:03;1.45;;;1.10;;
13386;SDS011;6763;48.524;9.044;2023-03-24T05:13:29;4.03;;;1.00;;
13386;SDS011;6763;48.524;9.044;2023-03-24T05:15:55;0.80;;;0.80;;
13386;SDS011;6763;48.524;9.044;2023-03-24T05:18:21;1.25;;;1.13;;
13386;SDS011;6763;48.524;9.044;2023-03-24T05:20:46;0.70;;;0.70;;
13386;SDS011;6763;48.524;9.044;2023-03-24T05:23:12;0.95;;;0.90;;
13386;SDS011;6763;48.524;9.044;2023-03-24T05:25:37;1.00;;;0.90;;
13386;SDS011;6763;48.524;9.044;2023-03-24T05:28:02;0.70;;;0.68;;
13386;SDS011;6763;48.524;9.044;2023-03-24T05:30:28;0.80;;;0.80;;
13386;SDS011;6763;48.524;9.044;2023-03-24T05:32:54;0.68;;;0.68;;
13386;SDS011;6763;48.524;9.044;2023-03-24T05:35:19;0.80;;;0.63;;
13386;SDS011;6763;48.524;9.044;2023-03-24T05:37:45;0.70;;;0.70;;
13386;SDS011;6763;48.524;9.044;2023-03-24T05:40:10;1.30;;;0.93;;
13386;SDS011;6763;48.524;9.044;2023-03-24T05:42:36;1.10;;;0.77;;
13386;SDS011;6763;48.524;9.044;2023-03-24T05:45:01;1.08;;;0.90;;
13386;SDS011;6763;48.524;9.044;2023-03-24T05:47:27;1.20;;;1.00;;
13386;SDS011;6763;48.524;9.044;2023-03-24T05:49:52;2.60;;;1.13;;
13386;SDS011;6763;48.524;9.044;2023-03-24T05:52:18;0.77;;;0.77;;
13386;SDS011;6763;48.524;9.044;2023-03-24T05:54:45;0.95;;;0.82;;
13386;SDS011;6763;48.524;9.044;2023-03-24T05:57:11;2.35;;;0.90;;
13386;SDS011;6763;48.524;9.044;2023-03-24T05:59:38;1.08;;;0.95;;
13386;SDS011;6763;48.524;9.044;2023-03-24T06:02:04;0.80;;;0.80;;
13386;SDS011;6763;48.524;9.044;2023-03-24T06:04:29;0.80;;;0.70;;
13386;SDS011;6763;48.524;9.044;2023-03-24T06:06:56;2.30;;;0.73;;
13386;SDS011;6763;48.524;9.044;2023-03-24T06:09:28;1.05;;;0.90;;
13386;SDS011;6763;48.524;9.044;2023-03-24T06:11:59;1.92;;;1.05;;
13386;SDS011;6763;48.524;9.044;2023-03-24T06:14:28;0.98;;;0.82;;
13386;SDS011;6763;48.524;9.044;2023-03-24T06:16:53;1.50;;;0.85;;
13386;SDS011;6763;48.524;9.044;2023-03-24T06:19:23;0.95;;;0.80;;
13386;SDS011;6763;48.524;9.044;2023-03-24T06:21:54;1.02;;;0.75;;
13386;SDS011;6763;48.524;9.044;2023-03-24T06:24:24;1.17;;;1.08;;
13386;SDS011;6763;48.524;9.044;2023-03-24T06:26:50;2.17;;;1.00;;
13386;SDS011;6763;48.524;9.044;2023-03-24T06:29:16;1.13;;;1.00;;
13386;SDS011;6763;48.524;9.044;2023-03-24T06:31:44;1.25;;;1.00;;
13386;SDS011;6763;48.524;9.044;2023-03-24T06:34:12;1.70;;;1.05;;
13386;SDS011;6763;48.524;9.044;2023-03-24T06:36:45;0.88;;;0.88;;
13386;SDS011;6763;48.524;9.044;2023-03-24T06:39:12;2.72;;;1.05;;
13386;SDS011;6763;48.524;9.044;2023-03-24T06:41:40;1.63;;;1.13;;
13386;SDS011;6763;48.524;9.044;2023-03-24T06:44:08;4.82;;;1.38;;
13386;SDS011;6763;48.524;9.044;2023-03-24T06:46:36;0.85;;;0.85;;
13386;SDS011;6763;48.524;9.044;2023-03-24T06:49:02;1.10;;;1.00;;
13386;SDS011;6763;48.524;9.044;2023-03-24T06:51:38;1.05;;;0.80;;
13386;SDS011;6763;48.524;9.044;2023-03-24T06:54:03;0.90;;;0.82;;
13386;SDS011;6763;48.524;9.044;2023-03-24T06:56:35;1.10;;;1.00;;
13386;SDS011;6763;48.524;9.044;2023-03-24T06:59:03;2.75;;;1.08;;
13386;SDS011;6763;48.524;9.044;2023-03-24T07:01:36;1.13;;;1.02;;
13386;SDS011;6763;48.524;9.044;2023-03-24T07:04:09;0.90;;;0.90;;
13386;SDS011;6763;48.524;9.044;2023-03-24T07:06:35;1.25;;;0.98;;
13386;SDS011;6763;48.524;9.044;2023-03-24T07:09:04;0.90;;;0.90;;
13386;SDS011;6763;48.524;9.044;2023-03-24T07:11:39;0.80;;;0.75;;
13386;SDS011;6763;48.524;9.044;2023-03-24T07:14:05;0.90;;;0.90;;
13386;SDS011;6763;48.524;9.044;2023-03-24T07:16:40;0.73;;;0.73;;
13386;SDS011;6763;48.524;9.044;2023-03-24T07:19:06;1.20;;;1.10;;
13386;SDS011;6763;48.524;9.044;2023-03-24T07:21:31;1.65;;;1.00;;
13386;SDS011;6763;48.524;9.044;2023-03-24T07:24:00;0.80;;;0.80;;
13386;SDS011;6763;48.524;9.044;2023-03-24T07:26:28;0.73;;;0.73;;
13386;SDS011;6763;48.524;9.044;2023-03-24T07:28:54;1.63;;;1.00;;
13386;SDS011;6763;48.524;9.044;2023-03-24T07:31:21;1.13;;;0.75;;
13386;SDS011;6763;48.524;9.044;2023-03-24T07:33:57;0.82;;;0.82;;
13386;SDS011;6763;48.524;9.044;2023-03-24T07:36:29;1.98;;;0.77;;
13386;SDS011;6763;48.524;9.044;2023-03-24T07:38:57;1.80;;;1.30;;
13386;SDS011;6763;48.524;9.044;2023-03-24T07:41:27;0.98;;;0.80;;
13386;SDS011;6763;48.524;9.044;2023-03-24T07:43:53;0.75;;;0.73;;
13386;SDS011;6763;48.524;9.044;2023-03-24T07:46:19;4.05;;;1.00;;
13386;SDS011;6763;48.524;9.044;2023-03-24T07:48:47;1.38;;;1.05;;
13386;SDS011;6763;48.524;9.044;2023-03-24T07:51:34;1.10;;;1.00;;
13386;SDS011;6763;48.524;9.044;2023-03-24T07:54:09;1.30;;;1.20;;
13386;SDS011;6763;48.524;9.044;2023-03-24T07:56:41;0.98;;;0.80;;
13386;SDS011;6763;48.524;9.044;2023-03-24T07:59:12;1.15;;;1.02;;
13386;SDS011;6763;48.524;9.044;2023-03-24T08:01:38;1.15;;;1.05;;
13386;SDS011;6763;48.524;9.044;2023-03-24T08:04:06;1.42;;;1.27;;
13386;SDS011;6763;48.524;9.044;2023-03-24T08:06:31;1.42;;;1.20;;
13386;SDS011;6763;48.524;9.044;2023-03-24T08:08:57;1.90;;;1.13;;
13386;SDS011;6763;48.524;9.044;2023-03-24T08:14:38;2.13;;;1.30;;
13386;SDS011;6763;48.524;9.044;2023-03-24T08:17:51;1.05;;;1.05;;
13386;SDS011;6763;48.524;9.044;2023-03-24T08:20:20;1.20;;;1.10;;
13386;SDS011;6763;48.524;9.044;2023-03-24T08:22:51;2.05;;;1.17;;
13386;SDS011;6763;48.524;9.044;2023-03-24T08:25:37;1.38;;;1.20;;
13386;SDS011;6763;48.524;9.044;2023-03-24T08:28:03;2.13;;;1.30;;
13386;SDS011;6763;48.524;9.044;2023-03-24T08:30:38;1.17;;;1.08;;
13386;SDS011;6763;48.524;9.044;2023-03-24T08:33:16;1.85;;;0.90;;
13386;SDS011;6763;48.524;9.044;2023-03-24T08:36:06;1.98;;;1.58;;
13386;SDS011;6763;48.524;9.044;2023-03-24T08:38:45;1.75;;;1.23;;
13386;SDS011;6763;48.524;9.044;2023-03-24T08:41:12;0.95;;;0.90;;
13386;SDS011;6763;48.524;9.044;2023-03-24T08:43:37;1.30;;;1.15;;
13386;SDS011;6763;48.524;9.044;2023-03-24T08:46:05;1.50;;;1.27;;
13386;SDS011;6763;48.524;9.044;2023-03-24T08:48:31;2.10;;;1.33;;
13386;SDS011;6763;48.524;9.044;2023-03-24T08:50:56;2.10;;;1.15;;
13386;SDS011;6763;48.524;9.044;2023-03-24T08:53:22;1.25;;;1.15;;
13386;SDS011;6763;48.524;9.044;2023-03-24T08:55:47;1.90;;;1.10;;
13386;SDS011;6763;48.524;9.044;2023-03-24T08:58:17;1.20;;;1.10;;
13386;SDS011;6763;48.524;9.044;2023-03-24T09:00:45;3.13;;;0.93;;
13386;SDS011;6763;48.524;9.044;2023-03-24T09:03:12;1.35;;;0.85;;
13386;SDS011;6763;48.524;9.044;2023-03-24T09:05:42;1.10;;;1.00;;
13386;SDS011;6763;48.524;9.044;2023-03-24T09:08:07;0.77;;;0.77;;
13386;SDS011;6763;48.524;9.044;2023-03-24T09:10:33;1.65;;;0.73;;
13386;SDS011;6763;48.524;9.044;2023-03-24T09:12:58;2.95;;;1.08;;
13386;SDS011;6763;48.524;9.044;2023-03-24T09:15:24;1.23;;;1.13;;
13386;SDS011;6763;48.524;9.044;2023-03-24T09:17:49;1.45;;;1.02;;
13386;SDS011;6763;48.524;9.044;2023-03-24T09:20:15;1.10;;;1.00;;
13386;SDS011;6763;48.524;9.044;2023-03-24T09:22:43;1.73;;;1.20;;
13386;SDS011;6763;48.524;9.044;2023-03-24T09:25:11;2.05;;;1.23;;
13386;SDS011;6763;48.524;9.044;2023-03-24T09:27:38;1.20;;;1.00;;
13386;SDS011;6763;48.524;9.044;2023-03-24T09:30:04;1.05;;;0.88;;
13386;SDS011;6763;48.524;9.044;2023-03-24T09:32:30;0.98;;;0.77;;
13386;SDS011;6763;48.524;9.044;2023-03-24T09:34:57;0.85;;;0.85;;
13386;SDS011;6763;48.524;9.044;2023-03-24T09:37:23;1.67;;;1.15;;
13386;SDS011;6763;48.524;9.044;2023-03-24T09:39:49;0.70;;;0.70;;
13386;SDS011;6763;48.524;9.044;2023-03-24T09:42:19;0.82;;;0.70;;
13386;SDS011;6763;48.524;9.044;2023-03-24T09:44:49;0.73;;;0.50;;
13386;SDS011;6763;48.524;9.044;2023-03-24T09:47:38;0.50;;;0.50;;
13386;SDS011;6763;48.524;9.044;2023-03-24T09:50:08;0.50;;;0.50;;
13386;SDS011;6763;48.524;9.044;2023-03-24T09:52:52;0.77;;;0.60;;
13386;SDS011;6763;48.524;9.044;2023-03-24T09:55:23;0.68;;;0.50;;
13386;SDS011;6763;48.524;9.044;2023-03-24T09:57:50;0.70;;;0.70;;
13386;SDS011;6763;48.524;9.044;2023-03-24T10:00:20;0.63;;;0.60;;
13386;SDS011;6763;48.524;9.044;2023-03-24T10:02:48;0.55;;;0.55;;
13386;SDS011;6763;48.524;9.044;2023-03-24T10:05:25;0.52;;;0.50;;
13386;SDS011;6763;48.524;9.044;2023-03-24T10:08:03;0.50;;;0.50;;
13386;SDS011;6763;48.524;9.044;2023-03-24T10:10:35;0.60;;;0.60;;
13386;SDS011;6763;48.524;9.044;2023-03-24T10:13:06;1.40;;;0.50;;
13386;SDS011;6763;48.524;9.044;2023-03-24T10:15:45;0.50;;;0.50;;
13386;SDS011;6763;48.524;9.044;2023-03-24T10:21:31;0.60;;;0.60;;
13386;SDS011;6763;48.524;9.044;2023-03-24T10:24:10;0.50;;;0.50;;
13386;SDS011;6763;48.524;9.044;2023-03-24T10:29:43;0.65;;;0.55;;
13386;SDS011;6763;48.524;9.044;2023-03-24T10:32:14;0.50;;;0.50;;
13386;SDS011;6763;48.524;9.044;2023-03-24T10:34:44;0.38;;;0.38;;
13386;SDS011;6763;48.524;9.044;2023-03-24T10:37:15;0.30;;;0.30;;
13386;SDS011;6763;48.524;9.044;2023-03-24T10:39:41;1.48;;;0.70;;
13386;SDS011;6763;48.524;9.044;2023-03-24T10:42:09;0.28;;;0.28;;
13386;SDS011;6763;48.524;9.044;2023-03-24T10:44:42;0.85;;;0.60;;
13386;SDS011;6763;48.524;9.044;2023-03-24T10:47:08;0.30;;;0.30;;
13386;SDS011;6763;48.524;9.044;2023-03-24T10:49:38;0.47;;;0.47;;
13386;SDS011;6763;48.524;9.044;2023-03-24T10:52:16;0.30;;;0.30;;
13386;SDS011;6763;48.524;9.044;2023-03-24T10:54:51;0.82;;;0.45;;
13386;SDS011;6763;48.524;9.044;2023-03-24T10:57:22;0.47;;;0.30;;
13386;SDS011;6763;48.524;9.044;2023-03-24T10:59:56;0.40;;;0.40;;
13386;SDS011;6763;48.524;9.044;2023-03-24T11:02:27;0.40;;;0.40;;
13386;SDS011;6763;48.524;9.044;2023-03-24T11:04:56;0.55;;;0.20;;
13386;SDS011;6763;48.524;9.044;2023-03-24T11:07:28;0.50;;;0.45;;
13386;SDS011;6763;48.524;9.044;2023-03-24T11:12:43;0.20;;;0.20;;
13386;SDS011;6763;48.524;9.044;2023-03-24T11:15:35;0.45;;;0.30;;
13386;SDS011;6763;48.524;9.044;2023-03-24T11:20:33;0.35;;;0.22;;
13386;SDS011;6763;48.524;9.044;2023-03-24T11:25:27;0.20;;;0.20;;
13386;SDS011;6763;48.524;9.044;2023-03-24T11:28:00;0.32;;;0.32;;
13386;SDS011;6763;48.524;9.044;2023-03-24T11:30:33;0.20;;;0.20;;
13386;SDS011;6763;48.524;9.044;2023-03-24T11:33:11;0.20;;;0.20;;
13386;SDS011;6763;48.524;9.044;2023-03-24T11:35:46;0.47;;;0.40;;
13386;SDS011;6763;48.524;9.044;2023-03-24T11:38:16;0.20;;;0.20;;
13386;SDS011;6763;48.524;9.044;2023-03-24T11:40:56;0.30;;;0.30;;
13386;SDS011;6763;48.524;9.044;2023-03-24T11:43:24;0.43;;;0.43;;
13386;SDS011;6763;48.524;9.044;2023-03-24T11:46:03;0.30;;;0.25;;
13386;SDS011;6763;48.524;9.044;2023-03-24T11:48:45;0.32;;;0.32;;
13386;SDS011;6763;48.524;9.044;2023-03-24T11:51:16;0.15;;;0.15;;
13386;SDS011;6763;48.524;9.044;2023-03-24T11:53:50;0.30;;;0.30;;
13386;SDS011;6763;48.524;9.044;2023-03-24T12:15:35;0.40;;;0.28;;
13386;SDS011;6763;48.524;9.044;2023-03-24T12:18:11;0.20;;;0.20;;
13386;SDS011;6763;48.524;9.044;2023-03-24T12:20:42;0.20;;;0.20;;
13386;SDS011;6763;48.524;9.044;2023-03-24T12:23:16;0.20;;;0.20;;
13386;SDS011;6763;48.524;9.044;2023-03-24T12:34:18;0.10;;;0.10;;
13386;SDS011;6763;48.524;9.044;2023-03-24T12:39:32;0.30;;;0.30;;
13386;SDS011;6763;48.524;9.044;2023-03-24T12:50:33;0.10;;;0.10;;
13386;SDS011;6763;48.524;9.044;2023-03-24T12:53:11;4.18;;;0.40;;
13386;SDS011;6763;48.524;9.044;2023-03-24T13:03:44;0.32;;;0.32;;
13386;SDS011;6763;48.524;9.044;2023-03-24T13:06:29;0.20;;;0.20;;
13386;SDS011;6763;48.524;9.044;2023-03-24T13:09:21;0.20;;;0.20;;
13386;SDS011;6763;48.524;9.044;2023-03-24T13:14:57;0.30;;;0.30;;
13386;SDS011;6763;48.524;9.044;2023-03-24T13:17:29;0.17;;;0.17;;
13386;SDS011;6763;48.524;9.044;2023-03-24T13:20:20;0.35;;;0.30;;
13386;SDS011;6763;48.524;9.044;2023-03-24T13:22:50;0.10;;;0.10;;
13386;SDS011;6763;48.524;9.044;2023-03-24T13:26:03;0.32;;;0.20;;
13386;SDS011;6763;48.524;9.044;2023-03-24T13:28:19;0.13;;;0.13;;
13386;SDS011;6763;48.524;9.044;2023-03-24T13:30:51;0.28;;;0.28;;
13386;SDS011;6763;48.524;9.044;2023-03-24T13:33:20;0.20;;;0.20;;
13386;SDS011;6763;48.524;9.044;2023-03-24T13:38:38;0.20;;;0.20;;
13386;SDS011;6763;48.524;9.044;2023-03-24T13:41:10;0.10;;;0.10;;
13386;SDS011;6763;48.524;9.044;2023-03-24T13:43:48;0.30;;;0.30;;
13386;SDS011;6763;48.524;9.044;2023-03-24T13:46:16;0.20;;;0.20;;
13386;SDS011;6763;48.524;9.044;2023-03-24T13:48:43;0.35;;;0.30;;
13386;SDS011;6763;48.524;9.044;2023-03-24T13:53:59;0.30;;;0.15;;
13386;SDS011;6763;48.524;9.044;2023-03-24T14:01:36;0.20;;;0.20;;
13386;SDS011;6763;48.524;9.044;2023-03-24T14:06:56;0.20;;;0.20;;
13386;SDS011;6763;48.524;9.044;2023-03-24T14:09:32;0.20;;;0.20;;
13386;SDS011;6763;48.524;9.044;2023-03-24T14:14:26;0.20;;;0.20;;
13386;SDS011;6763;48.524;9.044;2023-03-24T14:17:12;0.20;;;0.20;;
13386;SDS011;6763;48.524;9.044;2023-03-24T14:19:42;0.20;;;0.20;;
13386;SDS011;6763;48.524;9.044;2023-03-24T14:22:32;0.43;;;0.20;;
13386;SDS011;6763;48.524;9.044;2023-03-24T14:25:01;0.10;;;0.10;;
13386;SDS011;6763;48.524;9.044;2023-03-24T14:27:48;0.20;;;0.20;;
13386;SDS011;6763;48.524;9.044;2023-03-24T14:32:50;0.20;;;0.20;;
13386;SDS011;6763;48.524;9.044;2023-03-24T14:35:25;0.55;;;0.30;;
13386;SDS011;6763;48.524;9.044;2023-03-24T14:37:57;0.20;;;0.20;;
13386;SDS011;6763;48.524;9.044;2023-03-24T14:40:26;0.20;;;0.20;;
13386;SDS011;6763;48.524;9.044;2023-03-24T14:43:02;0.22;;;0.22;;
13386;SDS011;6763;48.524;9.044;2023-03-24T14:45:37;0.10;;;0.10;;
13386;SDS011;6763;48.524;9.044;2023-03-24T14:48:05;0.43;;;0.30;;
13386;SDS011;6763;48.524;9.044;2023-03-24T14:50:46;0.28;;;0.28;;
13386;SDS011;6763;48.524;9.044;2023-03-24T14:53:16;0.20;;;0.20;;
13386;SDS011;6763;48.524;9.044;2023-03-24T14:55:43;0.30;;;0.30;;
13386;SDS011;6763;48.524;9.044;2023-03-24T14:58:13;0.20;;;0.20;;
13386;SDS011;6763;48.524;9.044;2023-03-24T15:00:47;0.20;;;0.20;;
13386;SDS011;6763;48.524;9.044;2023-03-24T15:06:13;0.30;;;0.30;;
13386;SDS011;6763;48.524;9.044;2023-03-24T15:08:43;0.10;;;0.10;;
13386;SDS011;6763;48.524;9.044;2023-03-24T15:11:31;0.30;;;0.30;;
13386;SDS011;6763;48.524;9.044;2023-03-24T15:13:59;0.30;;;0.30;;
13386;SDS011;6763;48.524;9.044;2023-03-24T15:16:33;0.50;;;0.50;;
13386;SDS011;6763;48.524;9.044;2023-03-24T15:19:05;1.02;;;0.30;;
13386;SDS011;6763;48.524;9.044;2023-03-24T15:26:47;0.25;;;0.25;;
13386;SDS011;6763;48.524;9.044;2023-03-24T15:29:15;0.35;;;0.30;;
13386;SDS011;6763;48.524;9.044;2023-03-24T15:31:40;0.40;;;0.40;;
13386;SDS011;6763;48.524;9.044;2023-03-24T15:37:01;0.30;;;0.30;;
13386;SDS011;6763;48.524;9.044;2023-03-24T15:39:33;0.30;;;0.30;;
13386;SDS011;6763;48.524;9.044;2023-03-24T15:42:03;0.32;;;0.32;;
13386;SDS011;6763;48.524;9.044;2023-03-24T15:44:29;0.30;;;0.30;;
13386;SDS011;6763;48.524;9.044;2023-03-24T15:46:55;0.35;;;0.35;;
13386;SDS011;6763;48.524;9.044;2023-03-24T15:49:26;0.30;;;0.30;;
13386;SDS011;6763;48.524;9.044;2023-03-24T15:54:36;0.22;;;0.22;;
13386;SDS011;6763;48.524;9.044;2023-03-24T15:59:36;0.30;;;0.30;;
13386;SDS011;6763;48.524;9.044;2023-03-24T16:02:06;0.80;;;0.63;;
13386;SDS011;6763;48.524;9.044;2023-03-24T16:04:39;0.20;;;0.20;;
13386;SDS011;6763;48.524;9.044;2023-03-24T16:07:05;0.30;;;0.30;;
13386;SDS011;6763;48.524;9.044;2023-03-24T16:09:34;0.68;;;0.65;;
13386;SDS011;6763;48.524;9.044;2023-03-24T16:12:08;0.50;;;0.50;;
13386;SDS011;6763;48.524;9.044;2023-03-24T16:14:34;0.43;;;0.43;;
13386;SDS011;6763;48.524;9.044;2023-03-24T16:17:00;0.40;;;0.40;;
13386;SDS011;6763;48.524;9.044;2023-03-24T16:19:27;0.50;;;0.22;;
13386;SDS011;6763;48.524;9.044;2023-03-24T16:21:52;0.52;;;0.40;;
13386;SDS011;6763;48.524;9.044;2023-03-24T16:24:18;0.20;;;0.20;;
13386;SDS011;6763;48.524;9.044;2023-03-24T16:26:44;0.40;;;0.40;;
13386;SDS011;6763;48.524;9.044;2023-03-24T16:31:40;0.40;;;0.40;;
13386;SDS011;6763;48.524;9.044;2023-03-24T16:34:06;0.50;;;0.50;;
13386;SDS011;6763;48.524;9.044;2023-03-24T16:36:31;1.42;;;0.60;;
13386;SDS011;6763;48.524;9.044;2023-03-24T16:38:58;1.10;;;0.60;;
13386;SDS011;6763;48.524;9.044;2023-03-24T16:41:25;6.53;;;0.65;;
13386;SDS011;6763;48.524;9.044;2023-03-24T16:43:51;0.30;;;0.30;;
13386;SDS011;6763;48.524;9.044;2023-03-24T16:46:20;0.35;;;0.35;;
13386;SDS011;6763;48.524;9.044;2023-03-24T16:48:56;0.40;;;0.40;;
13386;SDS011;6763;48.524;9.044;2023-03-24T16:51:22;0.35;;;0.35;;
13386;SDS011;6763;48.524;9.044;2023-03-24T16:53:48;0.73;;;0.38;;
13386;SDS011;6763;48.524;9.044;2023-03-24T16:56:18;0.30;;;0.30;;
13386;SDS011;6763;48.524;9.044;2023-03-24T16:58:45;0.40;;;0.40;;
13386;SDS011;6763;48.524;9.044;2023-03-24T17:01:34;0.63;;;0.40;;
13386;SDS011;6763;48.524;9.044;2023-03-24T17:04:10;0.85;;;0.65;;
13386;SDS011;6763;48.524;9.044;2023-03-24T17:06:44;1.10;;;0.50;;
13386;SDS011;6763;48.524;9.044;2023-03-24T17:09:13;0.30;;;0.30;;
13386;SDS011;6763;48.524;9.044;2023-03-24T17:11:40;0.40;;;0.40;;
13386;SDS011;6763;48.524;9.044;2023-03-24T17:14:08;0.80;;;0.25;;
13386;SDS011;6763;48.524;9.044;2023-03-24T17:16:36;0.40;;;0.40;;
13386;SDS011;6763;48.524;9.044;2023-03-24T17:19:07;0.50;;;0.50;;
13386;SDS011;6763;48.524;9.044;2023-03-24T17:21:35;2.35;;;0.50;;
13386;SDS011;6763;48.524;9.044;2023-03-24T17:24:04;0.50;;;0.40;;
13386;SDS011;6763;48.524;9.044;2023-03-24T17:26:30;0.40;;;0.40;;
13386;SDS011;6763;48.524;9.044;2023-03-24T17:28:56;0.60;;;0.60;;
13386;SDS011;6763;48.524;9.044;2023-03-24T17:31:21;0.55;;;0.50;;
13386;SDS011;6763;48.524;9.044;2023-03-24T17:33:46;0.50;;;0.50;;
13386;SDS011;6763;48.524;9.044;2023-03-24T17:36:15;0.40;;;0.40;;
13386;SDS011;6763;48.524;9.044;2023-03-24T17:38:41;0.43;;;0.43;;
13386;SDS011;6763;48.524;9.044;2023-03-24T17:41:08;0.55;;;0.50;;
13386;SDS011;6763;48.524;9.044;2023-03-24T17:43:33;0.63;;;0.60;;
13386;SDS011;6763;48.524;9.044;2023-03-24T17:45:59;0.38;;;0.38;;